Pagina principale
METAR-TAF:

METAR-TAF

Aeroporti :

Aeroporto Internazionale Regina Beatrice

Aruba, Aruba

latitudine: 12-30N, longitudine: 070-01W, altezza: 18 m

Osservazione

Il bollettino è stato emesso 1 ora e 8 minuti fa, alle 01:00 UTC
Vento 17 kt da est
Temperature 29°C
Umidità 74%
Pressione 1011 hPa
Visibilità 10 km o più
Poco nuvoloso ad un'altezza di 1800 ft

METAR: TNCA 210100Z 08017KT 9999 FEW018 29/24 Q1011 NOSIG

Ora: 22:08 (02:08 UTC)

Previsione

Il bollettino è stato emesso 2 ore e 8 minuti fa, alle 00:00 UTC
Previsione valida dal 21 alle 00 UTC al 21 alle 24 UTC
Vento 16 kt da est
Visibilità 10 km o più
Nubi sparse ad un'altezza di 1800 ft
Probabilità 30% :
Temporaneamente
dal 21 alle 10 UTC al 21 alle 15 UTC
Visibilità: 7000 m
Nuvoloso ad un'altezza di 1400 ft
rovesci di pioggia,

TAF: TNCA 210000Z 2100/2124 08016KT 9999 SCT018 PROB30 TEMPO 2110/2115 7000 SHRA BKN014

Osservazioni e previsioni meteorologiche di più di 4000 aeroporti (messaggi METAR e TAF).

Le stazioni disponibili sono rappresentate dai dischi gialli e rossi sulla carta.

Puntare il mouse per vedere il nome della stazione.

Clicca sopra per visualizzare le osservazioni e previsioni meteorologiche.

Per cambiare la mappa : fare clic sui pulsanti verdi con una croce nera per ingrandire, il pulsante verde con un trattino per diminuire, o sulla freccia verde per le mappe adiacenti.


METAR-TAF: